sensor_id;sensor_type;location;lat;lon;timestamp;pressure;altitude;pressure_sealevel;temperature;humidity
64080;BME280;51042;49.696;10.808;2024-02-14T00:01:31;99421.38;;;-0.05;100.00
64080;BME280;51042;49.696;10.808;2024-02-14T00:03:56;99426.69;;;-0.09;100.00
64080;BME280;51042;49.696;10.808;2024-02-14T00:06:21;99420.16;;;-0.08;100.00
64080;BME280;51042;49.696;10.808;2024-02-14T00:08:48;99423.09;;;-0.13;100.00
64080;BME280;51042;49.696;10.808;2024-02-14T00:11:14;99421.84;;;-0.15;100.00
64080;BME280;51042;49.696;10.808;2024-02-14T00:13:39;99429.59;;;-0.14;100.00
64080;BME280;51042;49.696;10.808;2024-02-14T00:16:05;99431.63;;;-0.11;100.00
64080;BME280;51042;49.696;10.808;2024-02-14T00:18:31;99435.22;;;-0.07;100.00
64080;BME280;51042;49.696;10.808;2024-02-14T00:20:57;99442.28;;;-0.02;100.00
64080;BME280;51042;49.696;10.808;2024-02-14T00:23:22;99444.75;;;0.03;100.00
64080;BME280;51042;49.696;10.808;2024-02-14T00:25:48;99435.31;;;0.09;100.00
64080;BME280;51042;49.696;10.808;2024-02-14T00:28:13;99433.16;;;0.15;100.00
64080;BME280;51042;49.696;10.808;2024-02-14T00:30:39;99434.03;;;0.19;100.00
64080;BME280;51042;49.696;10.808;2024-02-14T00:33:04;99435.38;;;0.25;100.00
64080;BME280;51042;49.696;10.808;2024-02-14T00:35:29;99424.81;;;0.32;100.00
64080;BME280;51042;49.696;10.808;2024-02-14T00:37:55;99440.75;;;0.37;100.00
64080;BME280;51042;49.696;10.808;2024-02-14T00:40:20;99442.88;;;0.44;100.00
64080;BME280;51042;49.696;10.808;2024-02-14T00:42:46;99436.81;;;0.47;100.00
64080;BME280;51042;49.696;10.808;2024-02-14T00:45:11;99438.81;;;0.50;100.00
64080;BME280;51042;49.696;10.808;2024-02-14T00:47:37;99441.19;;;0.51;100.00
64080;BME280;51042;49.696;10.808;2024-02-14T00:50:02;99444.75;;;0.55;100.00
64080;BME280;51042;49.696;10.808;2024-02-14T00:52:28;99444.41;;;0.57;100.00
64080;BME280;51042;49.696;10.808;2024-02-14T00:54:54;99449.47;;;0.58;100.00
64080;BME280;51042;49.696;10.808;2024-02-14T00:57:20;99439.47;;;0.59;100.00
64080;BME280;51042;49.696;10.808;2024-02-14T00:59:50;99442.84;;;0.56;100.00
64080;BME280;51042;49.696;10.808;2024-02-14T01:02:18;99441.63;;;0.53;100.00
64080;BME280;51042;49.696;10.808;2024-02-14T01:04:44;99447.13;;;0.57;100.00
64080;BME280;51042;49.696;10.808;2024-02-14T01:07:09;99439.09;;;0.60;100.00
64080;BME280;51042;49.696;10.808;2024-02-14T01:09:35;99444.16;;;0.62;100.00
64080;BME280;51042;49.696;10.808;2024-02-14T01:12:01;99441.59;;;0.65;100.00
64080;BME280;51042;49.696;10.808;2024-02-14T01:14:27;99437.41;;;0.68;100.00
64080;BME280;51042;49.696;10.808;2024-02-14T01:16:53;99437.16;;;0.73;100.00
64080;BME280;51042;49.696;10.808;2024-02-14T01:19:22;99439.97;;;0.76;100.00
64080;BME280;51042;49.696;10.808;2024-02-14T01:21:53;99434.56;;;0.76;100.00
64080;BME280;51042;49.696;10.808;2024-02-14T01:24:19;99443.88;;;0.79;100.00
64080;BME280;51042;49.696;10.808;2024-02-14T01:26:44;99442.41;;;0.81;100.00
64080;BME280;51042;49.696;10.808;2024-02-14T01:29:10;99434.72;;;0.83;100.00
64080;BME280;51042;49.696;10.808;2024-02-14T01:31:35;99436.75;;;0.87;100.00
64080;BME280;51042;49.696;10.808;2024-02-14T01:34:01;99435.28;;;0.89;100.00
64080;BME280;51042;49.696;10.808;2024-02-14T01:36:27;99430.66;;;0.90;100.00
64080;BME280;51042;49.696;10.808;2024-02-14T01:38:54;99429.09;;;0.89;100.00
64080;BME280;51042;49.696;10.808;2024-02-14T01:41:19;99424.50;;;0.89;100.00
64080;BME280;51042;49.696;10.808;2024-02-14T01:43:46;99430.66;;;0.90;100.00
64080;BME280;51042;49.696;10.808;2024-02-14T01:46:12;99426.50;;;0.92;100.00
64080;BME280;51042;49.696;10.808;2024-02-14T01:48:37;99434.25;;;0.94;100.00
64080;BME280;51042;49.696;10.808;2024-02-14T01:51:04;99429.19;;;0.92;100.00
64080;BME280;51042;49.696;10.808;2024-02-14T01:53:33;99424.22;;;0.94;100.00
64080;BME280;51042;49.696;10.808;2024-02-14T01:56:01;99420.28;;;0.92;100.00
64080;BME280;51042;49.696;10.808;2024-02-14T01:58:29;99421.88;;;0.93;100.00
64080;BME280;51042;49.696;10.808;2024-02-14T02:00:55;99416.00;;;0.91;100.00
64080;BME280;51042;49.696;10.808;2024-02-14T02:03:25;99417.59;;;0.92;100.00
64080;BME280;51042;49.696;10.808;2024-02-14T02:12:58;99410.53;;;1.03;100.00
64080;BME280;51042;49.696;10.808;2024-02-14T02:15:25;99402.19;;;1.08;100.00
64080;BME280;51042;49.696;10.808;2024-02-14T02:17:51;99413.44;;;1.10;100.00
64080;BME280;51042;49.696;10.808;2024-02-14T02:20:18;99406.19;;;1.14;100.00
64080;BME280;51042;49.696;10.808;2024-02-14T02:22:45;99401.69;;;1.18;100.00
64080;BME280;51042;49.696;10.808;2024-02-14T02:25:13;99406.03;;;1.22;100.00
64080;BME280;51042;49.696;10.808;2024-02-14T02:27:38;99399.94;;;1.26;100.00
64080;BME280;51042;49.696;10.808;2024-02-14T02:30:07;99394.91;;;1.24;100.00
64080;BME280;51042;49.696;10.808;2024-02-14T02:32:35;99388.16;;;1.18;100.00
64080;BME280;51042;49.696;10.808;2024-02-14T02:35:01;99379.53;;;1.12;100.00
64080;BME280;51042;49.696;10.808;2024-02-14T02:37:28;99378.22;;;1.06;100.00
64080;BME280;51042;49.696;10.808;2024-02-14T02:39:54;99378.03;;;0.99;100.00
64080;BME280;51042;49.696;10.808;2024-02-14T02:42:21;99380.22;;;0.94;100.00
64080;BME280;51042;49.696;10.808;2024-02-14T02:44:46;99372.00;;;0.90;100.00
64080;BME280;51042;49.696;10.808;2024-02-14T02:47:13;99380.81;;;0.87;100.00
64080;BME280;51042;49.696;10.808;2024-02-14T02:49:41;99377.31;;;0.87;100.00
64080;BME280;51042;49.696;10.808;2024-02-14T02:52:09;99381.25;;;0.89;100.00
64080;BME280;51042;49.696;10.808;2024-02-14T02:54:37;99373.56;;;0.91;100.00
64080;BME280;51042;49.696;10.808;2024-02-14T02:57:08;99377.41;;;0.90;100.00
64080;BME280;51042;49.696;10.808;2024-02-14T02:59:35;99371.22;;;0.90;100.00
64080;BME280;51042;49.696;10.808;2024-02-14T03:02:00;99374.28;;;0.88;100.00
64080;BME280;51042;49.696;10.808;2024-02-14T03:04:26;99372.00;;;0.90;100.00
64080;BME280;51042;49.696;10.808;2024-02-14T03:06:51;99369.28;;;0.90;100.00
64080;BME280;51042;49.696;10.808;2024-02-14T03:09:16;99367.03;;;0.92;100.00
64080;BME280;51042;49.696;10.808;2024-02-14T03:11:45;99370.97;;;0.95;100.00
64080;BME280;51042;49.696;10.808;2024-02-14T03:14:12;99376.47;;;0.98;100.00
64080;BME280;51042;49.696;10.808;2024-02-14T03:16:38;99366.19;;;1.04;100.00
64080;BME280;51042;49.696;10.808;2024-02-14T03:19:03;99369.06;;;1.11;100.00
64080;BME280;51042;49.696;10.808;2024-02-14T03:21:30;99375.78;;;1.17;100.00
64080;BME280;51042;49.696;10.808;2024-02-14T03:24:00;99372.47;;;1.23;100.00
64080;BME280;51042;49.696;10.808;2024-02-14T03:26:26;99366.72;;;1.25;100.00
64080;BME280;51042;49.696;10.808;2024-02-14T03:28:51;99373.69;;;1.26;100.00
64080;BME280;51042;49.696;10.808;2024-02-14T03:31:18;99366.72;;;1.25;100.00
64080;BME280;51042;49.696;10.808;2024-02-14T03:33:43;99373.25;;;1.24;100.00
64080;BME280;51042;49.696;10.808;2024-02-14T03:36:09;99380.16;;;1.21;100.00
64080;BME280;51042;49.696;10.808;2024-02-14T03:38:35;99382.31;;;1.16;100.00
64080;BME280;51042;49.696;10.808;2024-02-14T03:41:00;99379.97;;;1.14;100.00
64080;BME280;51042;49.696;10.808;2024-02-14T03:43:26;99371.50;;;1.16;100.00
64080;BME280;51042;49.696;10.808;2024-02-14T03:45:52;99379.34;;;1.21;100.00
64080;BME280;51042;49.696;10.808;2024-02-14T03:48:19;99377.16;;;1.27;100.00
64080;BME280;51042;49.696;10.808;2024-02-14T03:50:45;99385.00;;;1.32;100.00
64080;BME280;51042;49.696;10.808;2024-02-14T03:53:10;99389.81;;;1.38;100.00
64080;BME280;51042;49.696;10.808;2024-02-14T03:55:36;99397.31;;;1.45;100.00
64080;BME280;51042;49.696;10.808;2024-02-14T03:58:02;99383.81;;;1.45;100.00
64080;BME280;51042;49.696;10.808;2024-02-14T04:00:28;99390.00;;;1.45;100.00
64080;BME280;51042;49.696;10.808;2024-02-14T04:02:54;99387.28;;;1.45;100.00
64080;BME280;51042;49.696;10.808;2024-02-14T04:05:23;99383.81;;;1.45;100.00
64080;BME280;51042;49.696;10.808;2024-02-14T04:07:49;99383.91;;;1.48;100.00
64080;BME280;51042;49.696;10.808;2024-02-14T04:10:17;99380.47;;;1.51;100.00
64080;BME280;51042;49.696;10.808;2024-02-14T04:12:42;99381.34;;;1.55;100.00
64080;BME280;51042;49.696;10.808;2024-02-14T04:15:08;99375.59;;;1.57;100.00
64080;BME280;51042;49.696;10.808;2024-02-14T04:17:34;99376.38;;;1.57;100.00
64080;BME280;51042;49.696;10.808;2024-02-14T04:19:59;99375.59;;;1.57;100.00
64080;BME280;51042;49.696;10.808;2024-02-14T04:22:25;99378.63;;;1.55;100.00
64080;BME280;51042;49.696;10.808;2024-02-14T04:24:50;99371.69;;;1.54;100.00
64080;BME280;51042;49.696;10.808;2024-02-14T04:27:16;99386.00;;;1.55;100.00
64080;BME280;51042;49.696;10.808;2024-02-14T04:29:44;99387.97;;;1.58;100.00
64080;BME280;51042;49.696;10.808;2024-02-14T04:32:10;99390.50;;;1.67;100.00
64080;BME280;51042;49.696;10.808;2024-02-14T04:34:36;99409.19;;;1.72;100.00
64080;BME280;51042;49.696;10.808;2024-02-14T04:37:04;99408.56;;;1.78;100.00
64080;BME280;51042;49.696;10.808;2024-02-14T04:39:35;99412.13;;;1.82;100.00
64080;BME280;51042;49.696;10.808;2024-02-14T04:42:03;99405.22;;;1.85;100.00
64080;BME280;51042;49.696;10.808;2024-02-14T04:44:30;99400.59;;;1.85;100.00
64080;BME280;51042;49.696;10.808;2024-02-14T04:46:56;99406.38;;;1.84;100.00
64080;BME280;51042;49.696;10.808;2024-02-14T04:49:23;99407.91;;;1.85;100.00
64080;BME280;51042;49.696;10.808;2024-02-14T04:51:49;99408.81;;;1.89;100.00
64080;BME280;51042;49.696;10.808;2024-02-14T04:54:16;99406.59;;;1.94;100.00
64080;BME280;51042;49.696;10.808;2024-02-14T04:56:41;99415.59;;;1.98;100.00
64080;BME280;51042;49.696;10.808;2024-02-14T04:59:16;99416.81;;;2.01;100.00
64080;BME280;51042;49.696;10.808;2024-02-14T05:01:41;99419.94;;;2.03;100.00
64080;BME280;51042;49.696;10.808;2024-02-14T05:04:07;99409.59;;;2.09;100.00
64080;BME280;51042;49.696;10.808;2024-02-14T05:06:32;99409.72;;;2.12;100.00
64080;BME280;51042;49.696;10.808;2024-02-14T05:08:58;99403.50;;;2.12;100.00
64080;BME280;51042;49.696;10.808;2024-02-14T05:11:23;99405.88;;;2.13;100.00
64080;BME280;51042;49.696;10.808;2024-02-14T05:13:49;99407.44;;;2.14;100.00
64080;BME280;51042;49.696;10.808;2024-02-14T05:16:19;99404.72;;;2.14;100.00
64080;BME280;51042;49.696;10.808;2024-02-14T05:18:45;99390.81;;;2.16;100.00
64080;BME280;51042;49.696;10.808;2024-02-14T05:21:11;99399.72;;;2.16;100.00
64080;BME280;51042;49.696;10.808;2024-02-14T05:23:36;99393.63;;;2.19;100.00
64080;BME280;51042;49.696;10.808;2024-02-14T05:26:02;99400.22;;;2.22;100.00
64080;BME280;51042;49.696;10.808;2024-02-14T05:28:28;99397.63;;;2.25;100.00
64080;BME280;51042;49.696;10.808;2024-02-14T05:30:54;99398.81;;;2.28;100.00
64080;BME280;51042;49.696;10.808;2024-02-14T05:33:20;99392.25;;;2.29;100.00
64080;BME280;51042;49.696;10.808;2024-02-14T05:35:47;99393.50;;;2.31;100.00
64080;BME280;51042;49.696;10.808;2024-02-14T05:38:13;99398.97;;;2.35;100.00
64080;BME280;51042;49.696;10.808;2024-02-14T05:40:39;99378.44;;;2.34;100.00
64080;BME280;51042;49.696;10.808;2024-02-14T05:43:08;99381.22;;;2.37;100.00
64080;BME280;51042;49.696;10.808;2024-02-14T05:45:33;99394.41;;;2.39;100.00
64080;BME280;51042;49.696;10.808;2024-02-14T05:47:58;99385.94;;;2.40;100.00
64080;BME280;51042;49.696;10.808;2024-02-14T05:50:24;99394.41;;;2.39;100.00
64080;BME280;51042;49.696;10.808;2024-02-14T05:52:49;99387.50;;;2.41;100.00
64080;BME280;51042;49.696;10.808;2024-02-14T05:55:15;99391.06;;;2.45;100.00
64080;BME280;51042;49.696;10.808;2024-02-14T05:57:40;99386.44;;;2.46;100.00
64080;BME280;51042;49.696;10.808;2024-02-14T06:00:06;99383.44;;;2.51;100.00
64080;BME280;51042;49.696;10.808;2024-02-14T06:02:34;99379.66;;;2.56;100.00
64080;BME280;51042;49.696;10.808;2024-02-14T06:04:59;99385.50;;;2.58;100.00
64080;BME280;51042;49.696;10.808;2024-02-14T06:07:25;99388.63;;;2.60;100.00
64080;BME280;51042;49.696;10.808;2024-02-14T06:09:50;99391.69;;;2.58;100.00
64080;BME280;51042;49.696;10.808;2024-02-14T06:12:16;99383.91;;;2.57;100.00
64080;BME280;51042;49.696;10.808;2024-02-14T06:14:41;99377.66;;;2.53;100.00
64080;BME280;51042;49.696;10.808;2024-02-14T06:17:06;99388.94;;;2.55;100.00
64080;BME280;51042;49.696;10.808;2024-02-14T06:19:32;99385.94;;;2.60;100.00
64080;BME280;51042;49.696;10.808;2024-02-14T06:21:58;99388.28;;;2.61;100.00
64080;BME280;51042;49.696;10.808;2024-02-14T06:24:24;99389.47;;;2.64;100.00
64080;BME280;51042;49.696;10.808;2024-02-14T06:26:49;99397.25;;;2.65;100.00
64080;BME280;51042;49.696;10.808;2024-02-14T06:29:15;99397.69;;;2.67;100.00
64080;BME280;51042;49.696;10.808;2024-02-14T06:31:40;99403.59;;;2.73;100.00
64080;BME280;51042;49.696;10.808;2024-02-14T06:34:06;99402.75;;;2.69;100.00
64080;BME280;51042;49.696;10.808;2024-02-14T06:36:33;99411.44;;;2.78;100.00
64080;BME280;51042;49.696;10.808;2024-02-14T06:38:58;99409.94;;;2.80;100.00
64080;BME280;51042;49.696;10.808;2024-02-14T06:41:24;99409.59;;;2.82;100.00
64080;BME280;51042;49.696;10.808;2024-02-14T06:43:49;99398.38;;;2.83;100.00
64080;BME280;51042;49.696;10.808;2024-02-14T06:46:14;99408.09;;;2.84;100.00
64080;BME280;51042;49.696;10.808;2024-02-14T06:48:40;99403.03;;;2.83;100.00
64080;BME280;51042;49.696;10.808;2024-02-14T06:51:06;99399.66;;;2.90;100.00
64080;BME280;51042;49.696;10.808;2024-02-14T06:53:32;99397.78;;;2.94;100.00
64080;BME280;51042;49.696;10.808;2024-02-14T06:55:57;99404.50;;;3.00;100.00
64080;BME280;51042;49.696;10.808;2024-02-14T06:58:23;99396.44;;;3.03;100.00
64080;BME280;51042;49.696;10.808;2024-02-14T07:00:48;99400.53;;;3.16;100.00
64080;BME280;51042;49.696;10.808;2024-02-14T07:03:14;99392.50;;;3.23;100.00
64080;BME280;51042;49.696;10.808;2024-02-14T07:05:40;99390.28;;;3.29;100.00
64080;BME280;51042;49.696;10.808;2024-02-14T07:08:06;99388.34;;;3.29;100.00
64080;BME280;51042;49.696;10.808;2024-02-14T07:10:32;99384.50;;;3.31;100.00
64080;BME280;51042;49.696;10.808;2024-02-14T07:12:58;99378.78;;;3.36;100.00
64080;BME280;51042;49.696;10.808;2024-02-14T07:15:23;99386.06;;;3.54;100.00
64080;BME280;51042;49.696;10.808;2024-02-14T07:17:53;99377.75;;;3.70;100.00
64080;BME280;51042;49.696;10.808;2024-02-14T07:20:19;99372.41;;;3.74;100.00
64080;BME280;51042;49.696;10.808;2024-02-14T07:22:45;99368.94;;;3.77;100.00
64080;BME280;51042;49.696;10.808;2024-02-14T07:25:12;99371.03;;;3.87;100.00
64080;BME280;51042;49.696;10.808;2024-02-14T07:27:38;99364.63;;;3.98;100.00
64080;BME280;51042;49.696;10.808;2024-02-14T07:30:03;99369.06;;;4.14;100.00
64080;BME280;51042;49.696;10.808;2024-02-14T07:32:30;99358.31;;;4.21;100.00
64080;BME280;51042;49.696;10.808;2024-02-14T07:34:56;99356.59;;;4.39;100.00
64080;BME280;51042;49.696;10.808;2024-02-14T07:37:21;99345.44;;;4.47;100.00
64080;BME280;51042;49.696;10.808;2024-02-14T07:39:47;99332.78;;;4.62;100.00
64080;BME280;51042;49.696;10.808;2024-02-14T07:42:13;99330.97;;;4.77;100.00
64080;BME280;51042;49.696;10.808;2024-02-14T07:44:38;99329.56;;;4.90;100.00
64080;BME280;51042;49.696;10.808;2024-02-14T07:47:04;99331.50;;;4.89;100.00
64080;BME280;51042;49.696;10.808;2024-02-14T07:49:29;99320.69;;;4.97;100.00
64080;BME280;51042;49.696;10.808;2024-02-14T07:51:55;99314.97;;;5.05;100.00
64080;BME280;51042;49.696;10.808;2024-02-14T07:54:21;99313.53;;;5.18;100.00
64080;BME280;51042;49.696;10.808;2024-02-14T07:56:46;99307.38;;;5.32;100.00
64080;BME280;51042;49.696;10.808;2024-02-14T07:59:11;99306.66;;;5.35;100.00
64080;BME280;51042;49.696;10.808;2024-02-14T08:01:37;99298.06;;;5.33;100.00
64080;BME280;51042;49.696;10.808;2024-02-14T08:04:02;99292.56;;;5.22;100.00
64080;BME280;51042;49.696;10.808;2024-02-14T08:06:29;99289.41;;;5.17;100.00
64080;BME280;51042;49.696;10.808;2024-02-14T08:08:54;99299.47;;;5.13;100.00
64080;BME280;51042;49.696;10.808;2024-02-14T08:11:24;99288.13;;;5.04;100.00
64080;BME280;51042;49.696;10.808;2024-02-14T08:13:50;99281.91;;;5.03;100.00
64080;BME280;51042;49.696;10.808;2024-02-14T08:16:16;99281.56;;;5.08;100.00
64080;BME280;51042;49.696;10.808;2024-02-14T08:18:42;99280.03;;;5.11;100.00
64080;BME280;51042;49.696;10.808;2024-02-14T08:21:09;99275.72;;;5.06;100.00
64080;BME280;51042;49.696;10.808;2024-02-14T08:23:35;99277.69;;;5.09;100.00
64080;BME280;51042;49.696;10.808;2024-02-14T08:26:01;99284.69;;;5.14;100.00
64080;BME280;51042;49.696;10.808;2024-02-14T08:28:26;99281.25;;;5.20;100.00
64080;BME280;51042;49.696;10.808;2024-02-14T08:30:51;99276.25;;;5.26;100.00
64080;BME280;51042;49.696;10.808;2024-02-14T08:33:17;99282.91;;;5.32;100.00
64080;BME280;51042;49.696;10.808;2024-02-14T08:35:42;99278.28;;;5.40;100.00
64080;BME280;51042;49.696;10.808;2024-02-14T08:38:08;99274.41;;;5.41;100.00
64080;BME280;51042;49.696;10.808;2024-02-14T08:40:34;99272.16;;;5.53;100.00
64080;BME280;51042;49.696;10.808;2024-02-14T08:42:59;99268.31;;;5.58;100.00
64080;BME280;51042;49.696;10.808;2024-02-14T08:45:25;99269.50;;;5.67;100.00
64080;BME280;51042;49.696;10.808;2024-02-14T08:47:54;99264.88;;;5.71;100.00
64080;BME280;51042;49.696;10.808;2024-02-14T08:50:19;99260.16;;;5.61;100.00
64080;BME280;51042;49.696;10.808;2024-02-14T08:52:44;99256.22;;;5.55;100.00
64080;BME280;51042;49.696;10.808;2024-02-14T08:55:10;99255.09;;;5.60;100.00
64080;BME280;51042;49.696;10.808;2024-02-14T08:57:41;99254.31;;;5.66;100.00
64080;BME280;51042;49.696;10.808;2024-02-14T09:00:07;99254.78;;;5.75;100.00
64080;BME280;51042;49.696;10.808;2024-02-14T09:02:33;99251.38;;;5.89;100.00
64080;BME280;51042;49.696;10.808;2024-02-14T09:05:00;99251.06;;;6.08;100.00
64080;BME280;51042;49.696;10.808;2024-02-14T09:07:26;99244.91;;;6.40;100.00
64080;BME280;51042;49.696;10.808;2024-02-14T09:09:51;99250.06;;;6.77;100.00
64080;BME280;51042;49.696;10.808;2024-02-14T09:12:16;99241.47;;;7.10;100.00
64080;BME280;51042;49.696;10.808;2024-02-14T09:14:42;99230.94;;;7.26;100.00
64080;BME280;51042;49.696;10.808;2024-02-14T09:17:07;99210.22;;;7.39;100.00
64080;BME280;51042;49.696;10.808;2024-02-14T09:19:32;99207.03;;;7.69;100.00
64080;BME280;51042;49.696;10.808;2024-02-14T09:21:58;99201.19;;;7.67;100.00
64080;BME280;51042;49.696;10.808;2024-02-14T09:24:24;99187.50;;;7.71;100.00
64080;BME280;51042;49.696;10.808;2024-02-14T09:26:49;99180.50;;;7.73;100.00
64080;BME280;51042;49.696;10.808;2024-02-14T09:29:14;99172.63;;;7.83;100.00
64080;BME280;51042;49.696;10.808;2024-02-14T09:31:40;99164.78;;;7.92;100.00
64080;BME280;51042;49.696;10.808;2024-02-14T09:34:05;99154.41;;;7.62;100.00
64080;BME280;51042;49.696;10.808;2024-02-14T09:36:31;99151.31;;;7.46;100.00
64080;BME280;51042;49.696;10.808;2024-02-14T09:38:56;99166.06;;;7.73;100.00
64080;BME280;51042;49.696;10.808;2024-02-14T09:44:01;99161.31;;;7.84;100.00
64080;BME280;51042;49.696;10.808;2024-02-14T09:46:28;99159.72;;;7.87;100.00
64080;BME280;51042;49.696;10.808;2024-02-14T09:48:55;99155.41;;;7.93;100.00
64080;BME280;51042;49.696;10.808;2024-02-14T09:51:23;99151.53;;;7.87;100.00
64080;BME280;51042;49.696;10.808;2024-02-14T09:53:49;99163.63;;;7.89;100.00
64080;BME280;51042;49.696;10.808;2024-02-14T09:56:15;99160.44;;;8.01;100.00
64080;BME280;51042;49.696;10.808;2024-02-14T09:58:44;99177.88;;;8.32;100.00
64080;BME280;51042;49.696;10.808;2024-02-14T10:01:15;99159.03;;;8.45;100.00
64080;BME280;51042;49.696;10.808;2024-02-14T10:03:40;99166.03;;;8.49;100.00
64080;BME280;51042;49.696;10.808;2024-02-14T10:06:06;99158.13;;;8.62;100.00
64080;BME280;51042;49.696;10.808;2024-02-14T10:08:31;99158.81;;;8.73;100.00
64080;BME280;51042;49.696;10.808;2024-02-14T10:10:57;99156.84;;;8.74;100.00
64080;BME280;51042;49.696;10.808;2024-02-14T10:13:26;99144.72;;;8.71;100.00
64080;BME280;51042;49.696;10.808;2024-02-14T10:15:53;99148.19;;;8.79;100.00
64080;BME280;51042;49.696;10.808;2024-02-14T10:18:19;99148.13;;;8.86;100.00
64080;BME280;51042;49.696;10.808;2024-02-14T10:20:57;99141.00;;;8.95;100.00
64080;BME280;51042;49.696;10.808;2024-02-14T10:23:22;99141.34;;;9.01;100.00
64080;BME280;51042;49.696;10.808;2024-02-14T10:25:49;99142.59;;;8.93;100.00
64080;BME280;51042;49.696;10.808;2024-02-14T10:28:16;99130.19;;;8.81;100.00
64080;BME280;51042;49.696;10.808;2024-02-14T10:30:44;99138.03;;;8.79;100.00
64080;BME280;51042;49.696;10.808;2024-02-14T10:33:11;99138.88;;;8.73;100.00
64080;BME280;51042;49.696;10.808;2024-02-14T10:35:36;99135.47;;;8.58;100.00
64080;BME280;51042;49.696;10.808;2024-02-14T10:38:06;99132.06;;;8.43;100.00
64080;BME280;51042;49.696;10.808;2024-02-14T10:40:34;99144.28;;;8.32;100.00
64080;BME280;51042;49.696;10.808;2024-02-14T10:43:01;99138.03;;;8.24;100.00
64080;BME280;51042;49.696;10.808;2024-02-14T10:45:27;99142.72;;;8.24;100.00
64080;BME280;51042;49.696;10.808;2024-02-14T10:47:55;99141.63;;;8.14;100.00
64080;BME280;51042;49.696;10.808;2024-02-14T10:50:22;99129.94;;;8.06;100.00
64080;BME280;51042;49.696;10.808;2024-02-14T10:52:49;99137.75;;;8.04;100.00
64080;BME280;51042;49.696;10.808;2024-02-14T10:55:22;99139.31;;;8.05;100.00
64080;BME280;51042;49.696;10.808;2024-02-14T10:57:54;99142.84;;;8.06;100.00
64080;BME280;51042;49.696;10.808;2024-02-14T11:00:21;99149.09;;;8.06;100.00
64080;BME280;51042;49.696;10.808;2024-02-14T11:02:51;99149.47;;;8.08;100.00
64080;BME280;51042;49.696;10.808;2024-02-14T11:05:19;99150.28;;;8.02;100.00
64080;BME280;51042;49.696;10.808;2024-02-14T11:07:49;99150.31;;;7.95;100.00
64080;BME280;51042;49.696;10.808;2024-02-14T11:10:17;99161.25;;;7.95;100.00
64080;BME280;51042;49.696;10.808;2024-02-14T11:12:43;99163.53;;;8.07;100.00
64080;BME280;51042;49.696;10.808;2024-02-14T11:15:12;99167.78;;;8.11;100.00
64080;BME280;51042;49.696;10.808;2024-02-14T11:17:49;99167.00;;;8.14;100.00
64080;BME280;51042;49.696;10.808;2024-02-14T11:20:32;99172.88;;;8.13;100.00
64080;BME280;51042;49.696;10.808;2024-02-14T11:23:02;99173.56;;;8.31;100.00
64080;BME280;51042;49.696;10.808;2024-02-14T11:25:31;99171.22;;;8.33;100.00
64080;BME280;51042;49.696;10.808;2024-02-14T11:27:58;99174.66;;;8.44;100.00
64080;BME280;51042;49.696;10.808;2024-02-14T11:30:31;99162.81;;;8.62;100.00
64080;BME280;51042;49.696;10.808;2024-02-14T11:35:34;99158.41;;;9.16;100.00
64080;BME280;51042;49.696;10.808;2024-02-14T11:38:00;99160.91;;;9.40;100.00
64080;BME280;51042;49.696;10.808;2024-02-14T11:40:25;99155.50;;;9.33;100.00
64080;BME280;51042;49.696;10.808;2024-02-14T11:42:51;99151.50;;;9.04;100.00
64080;BME280;51042;49.696;10.808;2024-02-14T11:45:16;99157.06;;;8.93;100.00
64080;BME280;51042;49.696;10.808;2024-02-14T11:47:42;99166.47;;;8.89;100.00
64080;BME280;51042;49.696;10.808;2024-02-14T11:50:07;99161.84;;;8.82;100.00
64080;BME280;51042;49.696;10.808;2024-02-14T11:52:36;99170.81;;;8.86;100.00
64080;BME280;51042;49.696;10.808;2024-02-14T11:55:01;99164.19;;;8.84;100.00
64080;BME280;51042;49.696;10.808;2024-02-14T11:57:26;99175.13;;;8.87;100.00
64080;BME280;51042;49.696;10.808;2024-02-14T11:59:52;99172.78;;;8.86;100.00
64080;BME280;51042;49.696;10.808;2024-02-14T12:02:19;99175.53;;;8.82;100.00
64080;BME280;51042;49.696;10.808;2024-02-14T12:04:46;99175.13;;;8.87;100.00
64080;BME280;51042;49.696;10.808;2024-02-14T12:07:15;99175.13;;;8.87;100.00
64080;BME280;51042;49.696;10.808;2024-02-14T12:09:43;99174.25;;;8.94;100.00
64080;BME280;51042;49.696;10.808;2024-02-14T12:12:09;99166.03;;;8.94;100.00
64080;BME280;51042;49.696;10.808;2024-02-14T12:14:34;99168.78;;;8.94;100.00
64080;BME280;51042;49.696;10.808;2024-02-14T12:17:00;99172.56;;;9.07;100.00
64080;BME280;51042;49.696;10.808;2024-02-14T12:19:28;99179.50;;;9.19;100.00
64080;BME280;51042;49.696;10.808;2024-02-14T12:21:54;99180.31;;;9.16;100.00
64080;BME280;51042;49.696;10.808;2024-02-14T12:24:21;99190.09;;;9.17;100.00
64080;BME280;51042;49.696;10.808;2024-02-14T12:26:48;99192.38;;;9.22;100.00
64080;BME280;51042;49.696;10.808;2024-02-14T12:29:17;99197.88;;;9.18;100.00
64080;BME280;51042;49.696;10.808;2024-02-14T12:31:43;99192.84;;;9.17;100.00
64080;BME280;51042;49.696;10.808;2024-02-14T12:34:12;99207.25;;;9.21;100.00
64080;BME280;51042;49.696;10.808;2024-02-14T12:36:37;99211.50;;;9.29;100.00
64080;BME280;51042;49.696;10.808;2024-02-14T12:39:03;99215.75;;;9.30;100.00
64080;BME280;51042;49.696;10.808;2024-02-14T12:41:28;99215.84;;;9.23;100.00
64080;BME280;51042;49.696;10.808;2024-02-14T12:43:55;99211.50;;;9.29;100.00
64080;BME280;51042;49.696;10.808;2024-02-14T12:46:21;99205.31;;;9.18;100.00
64080;BME280;51042;49.696;10.808;2024-02-14T12:48:47;99212.34;;;9.19;100.00
64080;BME280;51042;49.696;10.808;2024-02-14T12:51:13;99220.09;;;9.27;100.00
64080;BME280;51042;49.696;10.808;2024-02-14T12:53:39;99225.25;;;9.59;100.00
64080;BME280;51042;49.696;10.808;2024-02-14T12:56:08;99209.63;;;9.56;100.00
64080;BME280;51042;49.696;10.808;2024-02-14T12:58:33;99208.53;;;9.50;100.00